sensor_id;sensor_type;location;lat;lon;timestamp;P1;durP1;ratioP1;P2;durP2;ratioP2
53654;SDS011;39558;52.028;8.536;2022-07-23T00:01:29;1.67;;;1.13;;
53654;SDS011;39558;52.028;8.536;2022-07-23T00:03:56;1.60;;;0.90;;
53654;SDS011;39558;52.028;8.536;2022-07-23T00:06:22;1.77;;;0.88;;
53654;SDS011;39558;52.028;8.536;2022-07-23T00:08:48;1.88;;;1.00;;
53654;SDS011;39558;52.028;8.536;2022-07-23T00:11:14;1.77;;;1.17;;
53654;SDS011;39558;52.028;8.536;2022-07-23T00:13:40;1.65;;;0.85;;
53654;SDS011;39558;52.028;8.536;2022-07-23T00:16:06;1.88;;;1.00;;
53654;SDS011;39558;52.028;8.536;2022-07-23T00:18:32;2.08;;;1.25;;
53654;SDS011;39558;52.028;8.536;2022-07-23T00:20:58;1.98;;;0.95;;
53654;SDS011;39558;52.028;8.536;2022-07-23T00:23:24;1.75;;;1.00;;
53654;SDS011;39558;52.028;8.536;2022-07-23T00:25:50;1.98;;;1.10;;
53654;SDS011;39558;52.028;8.536;2022-07-23T00:28:16;2.13;;;0.90;;
53654;SDS011;39558;52.028;8.536;2022-07-23T00:30:43;2.35;;;1.10;;
53654;SDS011;39558;52.028;8.536;2022-07-23T00:33:09;2.15;;;0.98;;
53654;SDS011;39558;52.028;8.536;2022-07-23T00:35:37;2.08;;;1.10;;
53654;SDS011;39558;52.028;8.536;2022-07-23T00:38:05;1.73;;;1.20;;
53654;SDS011;39558;52.028;8.536;2022-07-23T00:40:32;2.08;;;1.08;;
53654;SDS011;39558;52.028;8.536;2022-07-23T00:42:58;2.78;;;1.33;;
53654;SDS011;39558;52.028;8.536;2022-07-23T00:45:24;1.80;;;1.10;;
53654;SDS011;39558;52.028;8.536;2022-07-23T00:47:50;1.33;;;0.90;;
53654;SDS011;39558;52.028;8.536;2022-07-23T00:50:16;2.28;;;1.38;;
53654;SDS011;39558;52.028;8.536;2022-07-23T00:52:42;2.25;;;1.05;;
53654;SDS011;39558;52.028;8.536;2022-07-23T00:55:08;1.98;;;1.10;;
53654;SDS011;39558;52.028;8.536;2022-07-23T00:57:34;2.17;;;1.10;;
53654;SDS011;39558;52.028;8.536;2022-07-23T01:00:00;2.85;;;1.38;;
53654;SDS011;39558;52.028;8.536;2022-07-23T01:02:26;1.77;;;1.10;;
53654;SDS011;39558;52.028;8.536;2022-07-23T01:04:52;1.27;;;0.80;;
53654;SDS011;39558;52.028;8.536;2022-07-23T01:07:18;1.85;;;1.00;;
53654;SDS011;39558;52.028;8.536;2022-07-23T01:09:45;1.85;;;1.02;;
53654;SDS011;39558;52.028;8.536;2022-07-23T01:12:11;2.60;;;1.17;;
53654;SDS011;39558;52.028;8.536;2022-07-23T01:14:37;1.73;;;1.17;;
53654;SDS011;39558;52.028;8.536;2022-07-23T01:17:03;1.50;;;0.93;;
53654;SDS011;39558;52.028;8.536;2022-07-23T01:19:29;1.42;;;0.80;;
53654;SDS011;39558;52.028;8.536;2022-07-23T01:21:56;2.17;;;0.95;;
53654;SDS011;39558;52.028;8.536;2022-07-23T01:24:22;1.98;;;1.00;;
53654;SDS011;39558;52.028;8.536;2022-07-23T01:26:48;2.03;;;0.88;;
53654;SDS011;39558;52.028;8.536;2022-07-23T01:29:15;2.70;;;1.05;;
53654;SDS011;39558;52.028;8.536;2022-07-23T01:31:41;1.67;;;1.13;;
53654;SDS011;39558;52.028;8.536;2022-07-23T01:34:07;1.52;;;0.90;;
53654;SDS011;39558;52.028;8.536;2022-07-23T01:36:34;3.35;;;1.27;;
53654;SDS011;39558;52.028;8.536;2022-07-23T01:39:00;1.73;;;1.00;;
53654;SDS011;39558;52.028;8.536;2022-07-23T01:41:25;1.90;;;0.80;;
53654;SDS011;39558;52.028;8.536;2022-07-23T01:43:51;0.50;;;0.50;;
53654;SDS011;39558;52.028;8.536;2022-07-23T01:46:17;2.15;;;1.02;;
53654;SDS011;39558;52.028;8.536;2022-07-23T01:48:43;2.45;;;1.30;;
53654;SDS011;39558;52.028;8.536;2022-07-23T01:51:09;3.90;;;1.75;;
53654;SDS011;39558;52.028;8.536;2022-07-23T01:53:35;2.50;;;1.13;;
53654;SDS011;39558;52.028;8.536;2022-07-23T01:56:01;1.77;;;1.10;;
53654;SDS011;39558;52.028;8.536;2022-07-23T01:58:28;1.15;;;0.85;;
53654;SDS011;39558;52.028;8.536;2022-07-23T02:00:54;1.92;;;1.00;;
53654;SDS011;39558;52.028;8.536;2022-07-23T02:03:20;1.63;;;1.05;;
53654;SDS011;39558;52.028;8.536;2022-07-23T02:05:46;2.97;;;1.50;;
53654;SDS011;39558;52.028;8.536;2022-07-23T02:08:12;1.73;;;1.00;;
53654;SDS011;39558;52.028;8.536;2022-07-23T02:10:37;2.05;;;0.93;;
53654;SDS011;39558;52.028;8.536;2022-07-23T02:13:03;1.77;;;1.15;;
53654;SDS011;39558;52.028;8.536;2022-07-23T02:15:29;1.73;;;1.10;;
53654;SDS011;39558;52.028;8.536;2022-07-23T02:17:55;1.58;;;1.00;;
53654;SDS011;39558;52.028;8.536;2022-07-23T02:20:21;2.45;;;1.52;;
53654;SDS011;39558;52.028;8.536;2022-07-23T02:22:47;3.17;;;0.90;;
53654;SDS011;39558;52.028;8.536;2022-07-23T02:25:13;1.83;;;1.20;;
53654;SDS011;39558;52.028;8.536;2022-07-23T02:27:39;2.10;;;1.15;;
53654;SDS011;39558;52.028;8.536;2022-07-23T02:30:06;1.92;;;1.13;;
53654;SDS011;39558;52.028;8.536;2022-07-23T02:32:32;2.05;;;1.10;;
53654;SDS011;39558;52.028;8.536;2022-07-23T02:34:58;2.38;;;1.30;;
53654;SDS011;39558;52.028;8.536;2022-07-23T02:37:24;1.63;;;1.10;;
53654;SDS011;39558;52.028;8.536;2022-07-23T02:39:50;2.22;;;0.90;;
53654;SDS011;39558;52.028;8.536;2022-07-23T02:42:16;1.83;;;1.02;;
53654;SDS011;39558;52.028;8.536;2022-07-23T02:44:42;2.13;;;1.20;;
53654;SDS011;39558;52.028;8.536;2022-07-23T02:47:08;2.90;;;1.25;;
53654;SDS011;39558;52.028;8.536;2022-07-23T02:49:34;2.42;;;1.13;;
53654;SDS011;39558;52.028;8.536;2022-07-23T02:52:00;1.45;;;1.00;;
53654;SDS011;39558;52.028;8.536;2022-07-23T02:54:26;1.60;;;0.80;;
53654;SDS011;39558;52.028;8.536;2022-07-23T02:56:52;1.98;;;0.88;;
53654;SDS011;39558;52.028;8.536;2022-07-23T02:59:17;2.35;;;1.10;;
53654;SDS011;39558;52.028;8.536;2022-07-23T03:01:44;1.63;;;1.00;;
53654;SDS011;39558;52.028;8.536;2022-07-23T03:04:10;1.65;;;1.02;;
53654;SDS011;39558;52.028;8.536;2022-07-23T03:06:36;1.40;;;0.80;;
53654;SDS011;39558;52.028;8.536;2022-07-23T03:09:02;1.95;;;1.30;;
53654;SDS011;39558;52.028;8.536;2022-07-23T03:11:28;2.50;;;1.05;;
53654;SDS011;39558;52.028;8.536;2022-07-23T03:13:55;1.88;;;1.00;;
53654;SDS011;39558;52.028;8.536;2022-07-23T03:16:21;2.13;;;1.10;;
53654;SDS011;39558;52.028;8.536;2022-07-23T03:18:47;2.67;;;0.90;;
53654;SDS011;39558;52.028;8.536;2022-07-23T03:21:13;1.17;;;0.90;;
53654;SDS011;39558;52.028;8.536;2022-07-23T03:23:38;1.67;;;1.10;;
53654;SDS011;39558;52.028;8.536;2022-07-23T03:26:04;1.98;;;0.90;;
53654;SDS011;39558;52.028;8.536;2022-07-23T03:28:30;1.92;;;1.10;;
53654;SDS011;39558;52.028;8.536;2022-07-23T03:30:56;2.10;;;0.90;;
53654;SDS011;39558;52.028;8.536;2022-07-23T03:33:22;1.52;;;1.00;;
53654;SDS011;39558;52.028;8.536;2022-07-23T03:35:48;1.98;;;1.20;;
53654;SDS011;39558;52.028;8.536;2022-07-23T03:38:14;1.58;;;1.10;;
53654;SDS011;39558;52.028;8.536;2022-07-23T03:40:40;1.45;;;0.80;;
53654;SDS011;39558;52.028;8.536;2022-07-23T03:43:06;1.60;;;0.90;;
53654;SDS011;39558;52.028;8.536;2022-07-23T03:45:32;1.73;;;1.10;;
53654;SDS011;39558;52.028;8.536;2022-07-23T03:47:58;2.58;;;1.08;;
53654;SDS011;39558;52.028;8.536;2022-07-23T03:50:24;1.63;;;1.00;;
53654;SDS011;39558;52.028;8.536;2022-07-23T03:52:50;1.98;;;1.05;;
53654;SDS011;39558;52.028;8.536;2022-07-23T03:55:16;4.13;;;0.80;;
53654;SDS011;39558;52.028;8.536;2022-07-23T03:57:42;1.80;;;0.98;;
53654;SDS011;39558;52.028;8.536;2022-07-23T04:00:08;1.20;;;0.80;;
53654;SDS011;39558;52.028;8.536;2022-07-23T04:02:35;1.35;;;0.90;;
53654;SDS011;39558;52.028;8.536;2022-07-23T04:05:01;2.83;;;1.10;;
53654;SDS011;39558;52.028;8.536;2022-07-23T04:07:27;4.13;;;1.30;;
53654;SDS011;39558;52.028;8.536;2022-07-23T04:09:53;1.25;;;0.90;;
53654;SDS011;39558;52.028;8.536;2022-07-23T04:12:19;1.30;;;0.90;;
53654;SDS011;39558;52.028;8.536;2022-07-23T04:14:45;1.63;;;0.85;;
53654;SDS011;39558;52.028;8.536;2022-07-23T04:17:11;2.13;;;0.93;;
53654;SDS011;39558;52.028;8.536;2022-07-23T04:19:37;1.58;;;0.80;;
53654;SDS011;39558;52.028;8.536;2022-07-23T04:22:06;1.38;;;0.60;;
53654;SDS011;39558;52.028;8.536;2022-07-23T04:24:32;1.90;;;0.90;;
53654;SDS011;39558;52.028;8.536;2022-07-23T04:26:58;2.03;;;1.00;;
53654;SDS011;39558;52.028;8.536;2022-07-23T04:29:24;1.60;;;0.93;;
53654;SDS011;39558;52.028;8.536;2022-07-23T04:31:50;1.52;;;1.00;;
53654;SDS011;39558;52.028;8.536;2022-07-23T04:34:16;2.25;;;1.00;;
53654;SDS011;39558;52.028;8.536;2022-07-23T04:36:42;1.77;;;0.80;;
53654;SDS011;39558;52.028;8.536;2022-07-23T04:39:08;1.85;;;0.77;;
53654;SDS011;39558;52.028;8.536;2022-07-23T04:41:34;2.38;;;0.80;;
53654;SDS011;39558;52.028;8.536;2022-07-23T04:44:00;1.10;;;0.60;;
53654;SDS011;39558;52.028;8.536;2022-07-23T04:46:26;1.50;;;0.88;;
53654;SDS011;39558;52.028;8.536;2022-07-23T04:48:52;1.92;;;1.10;;
53654;SDS011;39558;52.028;8.536;2022-07-23T04:51:18;1.50;;;0.75;;
53654;SDS011;39558;52.028;8.536;2022-07-23T04:53:44;0.80;;;0.65;;
53654;SDS011;39558;52.028;8.536;2022-07-23T04:56:10;2.05;;;0.63;;
53654;SDS011;39558;52.028;8.536;2022-07-23T04:58:36;1.40;;;0.77;;
53654;SDS011;39558;52.028;8.536;2022-07-23T05:01:02;1.63;;;0.93;;
53654;SDS011;39558;52.028;8.536;2022-07-23T05:03:28;1.23;;;0.90;;
53654;SDS011;39558;52.028;8.536;2022-07-23T05:05:54;1.88;;;0.88;;
53654;SDS011;39558;52.028;8.536;2022-07-23T05:08:20;2.88;;;0.90;;
53654;SDS011;39558;52.028;8.536;2022-07-23T05:10:46;1.23;;;0.80;;
53654;SDS011;39558;52.028;8.536;2022-07-23T05:13:13;3.58;;;0.70;;
53654;SDS011;39558;52.028;8.536;2022-07-23T05:15:40;1.13;;;0.65;;
53654;SDS011;39558;52.028;8.536;2022-07-23T05:18:06;1.85;;;0.90;;
53654;SDS011;39558;52.028;8.536;2022-07-23T05:20:32;1.77;;;1.02;;
53654;SDS011;39558;52.028;8.536;2022-07-23T05:22:58;1.75;;;1.02;;
53654;SDS011;39558;52.028;8.536;2022-07-23T05:25:24;1.08;;;0.70;;
53654;SDS011;39558;52.028;8.536;2022-07-23T05:27:50;1.48;;;0.63;;
53654;SDS011;39558;52.028;8.536;2022-07-23T05:30:15;1.25;;;0.70;;
53654;SDS011;39558;52.028;8.536;2022-07-23T05:32:41;1.30;;;0.50;;
53654;SDS011;39558;52.028;8.536;2022-07-23T05:35:07;1.90;;;0.70;;
53654;SDS011;39558;52.028;8.536;2022-07-23T05:37:33;1.40;;;0.60;;
53654;SDS011;39558;52.028;8.536;2022-07-23T05:40:00;1.50;;;0.70;;
53654;SDS011;39558;52.028;8.536;2022-07-23T05:42:27;3.42;;;1.08;;
53654;SDS011;39558;52.028;8.536;2022-07-23T05:44:52;1.95;;;0.80;;
53654;SDS011;39558;52.028;8.536;2022-07-23T05:47:19;1.98;;;0.80;;
53654;SDS011;39558;52.028;8.536;2022-07-23T05:49:44;1.17;;;0.70;;
53654;SDS011;39558;52.028;8.536;2022-07-23T05:52:10;2.63;;;0.93;;
53654;SDS011;39558;52.028;8.536;2022-07-23T05:54:36;2.30;;;0.82;;
53654;SDS011;39558;52.028;8.536;2022-07-23T05:57:02;1.35;;;0.60;;
53654;SDS011;39558;52.028;8.536;2022-07-23T05:59:28;1.73;;;0.75;;
53654;SDS011;39558;52.028;8.536;2022-07-23T06:01:54;1.65;;;0.70;;
53654;SDS011;39558;52.028;8.536;2022-07-23T06:04:20;1.75;;;0.70;;
53654;SDS011;39558;52.028;8.536;2022-07-23T06:06:46;1.20;;;0.70;;
53654;SDS011;39558;52.028;8.536;2022-07-23T06:09:12;1.42;;;0.65;;
53654;SDS011;39558;52.028;8.536;2022-07-23T06:11:38;4.40;;;0.80;;
53654;SDS011;39558;52.028;8.536;2022-07-23T06:14:04;1.08;;;0.60;;
53654;SDS011;39558;52.028;8.536;2022-07-23T06:16:31;1.17;;;0.60;;
53654;SDS011;39558;52.028;8.536;2022-07-23T06:18:56;1.00;;;0.50;;
53654;SDS011;39558;52.028;8.536;2022-07-23T06:21:22;1.88;;;0.50;;
53654;SDS011;39558;52.028;8.536;2022-07-23T06:23:48;1.33;;;0.43;;
53654;SDS011;39558;52.028;8.536;2022-07-23T06:26:14;1.42;;;0.60;;
53654;SDS011;39558;52.028;8.536;2022-07-23T06:28:40;2.63;;;0.85;;
53654;SDS011;39558;52.028;8.536;2022-07-23T06:31:06;1.88;;;0.73;;
53654;SDS011;39558;52.028;8.536;2022-07-23T06:33:33;3.28;;;1.08;;
53654;SDS011;39558;52.028;8.536;2022-07-23T06:35:58;1.00;;;0.45;;
53654;SDS011;39558;52.028;8.536;2022-07-23T06:38:24;2.08;;;0.88;;
53654;SDS011;39558;52.028;8.536;2022-07-23T06:40:50;1.50;;;0.40;;
53654;SDS011;39558;52.028;8.536;2022-07-23T06:43:16;0.98;;;0.45;;
53654;SDS011;39558;52.028;8.536;2022-07-23T06:45:42;2.00;;;0.90;;
53654;SDS011;39558;52.028;8.536;2022-07-23T06:48:08;1.60;;;0.55;;
53654;SDS011;39558;52.028;8.536;2022-07-23T06:50:34;1.48;;;0.52;;
53654;SDS011;39558;52.028;8.536;2022-07-23T06:53:00;1.77;;;0.50;;
53654;SDS011;39558;52.028;8.536;2022-07-23T06:55:26;1.10;;;0.60;;
53654;SDS011;39558;52.028;8.536;2022-07-23T06:57:52;2.17;;;0.50;;
53654;SDS011;39558;52.028;8.536;2022-07-23T07:00:18;0.90;;;0.52;;
53654;SDS011;39558;52.028;8.536;2022-07-23T07:02:44;1.45;;;0.68;;
53654;SDS011;39558;52.028;8.536;2022-07-23T07:05:10;1.02;;;0.43;;
53654;SDS011;39558;52.028;8.536;2022-07-23T07:07:36;1.58;;;0.40;;
53654;SDS011;39558;52.028;8.536;2022-07-23T07:10:02;1.60;;;0.68;;
53654;SDS011;39558;52.028;8.536;2022-07-23T07:12:28;1.05;;;0.52;;
53654;SDS011;39558;52.028;8.536;2022-07-23T07:14:54;0.90;;;0.52;;
53654;SDS011;39558;52.028;8.536;2022-07-23T07:17:21;1.17;;;0.60;;
53654;SDS011;39558;52.028;8.536;2022-07-23T07:19:47;0.98;;;0.43;;
53654;SDS011;39558;52.028;8.536;2022-07-23T07:22:13;1.42;;;0.57;;
53654;SDS011;39558;52.028;8.536;2022-07-23T07:24:39;0.63;;;0.47;;
53654;SDS011;39558;52.028;8.536;2022-07-23T07:27:05;1.25;;;0.50;;
53654;SDS011;39558;52.028;8.536;2022-07-23T07:29:31;0.93;;;0.40;;
53654;SDS011;39558;52.028;8.536;2022-07-23T07:31:57;1.67;;;0.60;;
53654;SDS011;39558;52.028;8.536;2022-07-23T07:34:23;1.88;;;0.50;;
53654;SDS011;39558;52.028;8.536;2022-07-23T07:36:49;1.60;;;0.60;;
53654;SDS011;39558;52.028;8.536;2022-07-23T07:39:15;0.57;;;0.30;;
53654;SDS011;39558;52.028;8.536;2022-07-23T07:41:41;1.80;;;0.77;;
53654;SDS011;39558;52.028;8.536;2022-07-23T07:44:07;1.77;;;0.55;;
53654;SDS011;39558;52.028;8.536;2022-07-23T07:46:33;1.35;;;0.70;;
53654;SDS011;39558;52.028;8.536;2022-07-23T07:48:59;1.38;;;0.60;;
53654;SDS011;39558;52.028;8.536;2022-07-23T07:51:25;1.33;;;0.57;;
53654;SDS011;39558;52.028;8.536;2022-07-23T07:53:51;1.25;;;0.63;;
53654;SDS011;39558;52.028;8.536;2022-07-23T07:56:17;0.80;;;0.45;;
53654;SDS011;39558;52.028;8.536;2022-07-23T07:58:43;1.85;;;0.43;;
53654;SDS011;39558;52.028;8.536;2022-07-23T08:01:09;1.90;;;0.73;;
53654;SDS011;39558;52.028;8.536;2022-07-23T08:03:35;2.45;;;0.80;;
53654;SDS011;39558;52.028;8.536;2022-07-23T08:06:00;1.60;;;0.50;;
53654;SDS011;39558;52.028;8.536;2022-07-23T08:08:26;0.85;;;0.40;;
53654;SDS011;39558;52.028;8.536;2022-07-23T08:10:52;1.35;;;0.70;;
53654;SDS011;39558;52.028;8.536;2022-07-23T08:13:18;3.65;;;1.40;;
53654;SDS011;39558;52.028;8.536;2022-07-23T08:15:44;1.08;;;0.50;;
53654;SDS011;39558;52.028;8.536;2022-07-23T08:18:10;1.58;;;0.50;;
53654;SDS011;39558;52.028;8.536;2022-07-23T08:20:36;2.05;;;0.47;;
53654;SDS011;39558;52.028;8.536;2022-07-23T08:23:03;1.23;;;0.55;;
53654;SDS011;39558;52.028;8.536;2022-07-23T08:25:30;2.30;;;0.63;;
53654;SDS011;39558;52.028;8.536;2022-07-23T08:27:57;1.58;;;0.50;;
53654;SDS011;39558;52.028;8.536;2022-07-23T08:30:24;1.35;;;0.57;;
53654;SDS011;39558;52.028;8.536;2022-07-23T08:32:51;1.35;;;0.43;;
53654;SDS011;39558;52.028;8.536;2022-07-23T08:35:17;1.10;;;0.52;;
53654;SDS011;39558;52.028;8.536;2022-07-23T08:37:44;1.33;;;0.50;;
53654;SDS011;39558;52.028;8.536;2022-07-23T08:40:10;2.42;;;0.60;;
53654;SDS011;39558;52.028;8.536;2022-07-23T08:42:36;0.95;;;0.30;;
53654;SDS011;39558;52.028;8.536;2022-07-23T08:45:02;1.27;;;0.70;;
53654;SDS011;39558;52.028;8.536;2022-07-23T08:47:29;0.85;;;0.38;;
53654;SDS011;39558;52.028;8.536;2022-07-23T08:49:55;1.10;;;0.40;;
53654;SDS011;39558;52.028;8.536;2022-07-23T08:52:22;2.15;;;0.52;;
53654;SDS011;39558;52.028;8.536;2022-07-23T08:54:48;1.30;;;0.38;;
53654;SDS011;39558;52.028;8.536;2022-07-23T08:57:14;0.88;;;0.38;;
53654;SDS011;39558;52.028;8.536;2022-07-23T08:59:40;1.30;;;0.60;;
53654;SDS011;39558;52.028;8.536;2022-07-23T09:02:06;1.90;;;0.60;;
53654;SDS011;39558;52.028;8.536;2022-07-23T09:04:32;1.33;;;0.35;;
53654;SDS011;39558;52.028;8.536;2022-07-23T09:06:58;1.48;;;0.50;;
53654;SDS011;39558;52.028;8.536;2022-07-23T09:09:24;2.45;;;0.60;;
53654;SDS011;39558;52.028;8.536;2022-07-23T09:12:01;1.40;;;0.50;;
53654;SDS011;39558;52.028;8.536;2022-07-23T09:14:45;0.50;;;0.30;;
53654;SDS011;39558;52.028;8.536;2022-07-23T09:17:14;1.45;;;0.55;;
53654;SDS011;39558;52.028;8.536;2022-07-23T09:19:41;0.65;;;0.40;;
53654;SDS011;39558;52.028;8.536;2022-07-23T09:22:21;1.77;;;0.50;;
53654;SDS011;39558;52.028;8.536;2022-07-23T09:25:07;0.57;;;0.40;;
53654;SDS011;39558;52.028;8.536;2022-07-23T09:30:11;1.15;;;0.35;;
53654;SDS011;39558;52.028;8.536;2022-07-23T09:32:38;2.53;;;0.35;;
53654;SDS011;39558;52.028;8.536;2022-07-23T09:35:04;1.10;;;0.40;;
53654;SDS011;39558;52.028;8.536;2022-07-23T09:37:30;1.15;;;0.32;;
53654;SDS011;39558;52.028;8.536;2022-07-23T09:40:03;0.75;;;0.40;;
53654;SDS011;39558;52.028;8.536;2022-07-23T09:42:29;0.88;;;0.50;;
53654;SDS011;39558;52.028;8.536;2022-07-23T09:44:56;3.13;;;0.60;;
53654;SDS011;39558;52.028;8.536;2022-07-23T09:47:23;2.13;;;0.57;;
53654;SDS011;39558;52.028;8.536;2022-07-23T09:52:26;1.10;;;0.50;;
53654;SDS011;39558;52.028;8.536;2022-07-23T09:54:57;1.30;;;0.40;;
53654;SDS011;39558;52.028;8.536;2022-07-23T09:57:24;1.65;;;0.50;;
53654;SDS011;39558;52.028;8.536;2022-07-23T09:59:51;1.33;;;0.40;;
53654;SDS011;39558;52.028;8.536;2022-07-23T10:02:17;2.25;;;0.50;;
53654;SDS011;39558;52.028;8.536;2022-07-23T10:04:43;1.70;;;0.50;;
53654;SDS011;39558;52.028;8.536;2022-07-23T10:07:09;3.83;;;0.40;;
53654;SDS011;39558;52.028;8.536;2022-07-23T10:09:37;1.52;;;0.60;;
53654;SDS011;39558;52.028;8.536;2022-07-23T10:12:04;2.10;;;0.50;;
53654;SDS011;39558;52.028;8.536;2022-07-23T10:14:36;3.33;;;0.75;;
53654;SDS011;39558;52.028;8.536;2022-07-23T10:17:03;2.28;;;0.40;;
53654;SDS011;39558;52.028;8.536;2022-07-23T10:19:30;3.70;;;0.38;;
53654;SDS011;39558;52.028;8.536;2022-07-23T10:22:03;3.00;;;0.63;;
53654;SDS011;39558;52.028;8.536;2022-07-23T10:24:36;9.68;;;1.30;;
53654;SDS011;39558;52.028;8.536;2022-07-23T10:29:50;6.63;;;0.75;;
53654;SDS011;39558;52.028;8.536;2022-07-23T10:32:38;9.40;;;0.70;;
53654;SDS011;39558;52.028;8.536;2022-07-23T10:35:15;3.42;;;0.60;;
53654;SDS011;39558;52.028;8.536;2022-07-23T10:37:48;4.63;;;0.73;;
53654;SDS011;39558;52.028;8.536;2022-07-23T10:40:16;3.67;;;0.40;;
53654;SDS011;39558;52.028;8.536;2022-07-23T10:42:43;4.97;;;1.00;;
53654;SDS011;39558;52.028;8.536;2022-07-23T10:45:22;2.50;;;0.80;;
53654;SDS011;39558;52.028;8.536;2022-07-23T10:47:48;4.03;;;0.70;;
53654;SDS011;39558;52.028;8.536;2022-07-23T10:50:22;5.13;;;1.05;;
53654;SDS011;39558;52.028;8.536;2022-07-23T10:53:07;4.15;;;0.50;;
53654;SDS011;39558;52.028;8.536;2022-07-23T10:58:00;5.05;;;1.15;;
53654;SDS011;39558;52.028;8.536;2022-07-23T11:00:27;5.03;;;0.75;;
53654;SDS011;39558;52.028;8.536;2022-07-23T11:02:55;2.03;;;0.63;;
53654;SDS011;39558;52.028;8.536;2022-07-23T11:05:22;7.15;;;0.70;;
53654;SDS011;39558;52.028;8.536;2022-07-23T11:08:10;1.75;;;0.50;;
53654;SDS011;39558;52.028;8.536;2022-07-23T11:10:43;4.50;;;0.90;;
53654;SDS011;39558;52.028;8.536;2022-07-23T11:13:25;1.50;;;0.75;;
53654;SDS011;39558;52.028;8.536;2022-07-23T11:34:44;6.95;;;1.00;;
53654;SDS011;39558;52.028;8.536;2022-07-23T11:37:12;2.50;;;0.50;;
53654;SDS011;39558;52.028;8.536;2022-07-23T11:39:38;3.50;;;0.70;;
53654;SDS011;39558;52.028;8.536;2022-07-23T11:42:06;3.92;;;1.10;;
53654;SDS011;39558;52.028;8.536;2022-07-23T11:44:33;3.45;;;0.85;;
53654;SDS011;39558;52.028;8.536;2022-07-23T11:46:59;3.63;;;1.00;;
53654;SDS011;39558;52.028;8.536;2022-07-23T11:49:26;3.65;;;0.60;;
53654;SDS011;39558;52.028;8.536;2022-07-23T11:52:12;2.35;;;0.60;;
53654;SDS011;39558;52.028;8.536;2022-07-23T11:57:13;1.50;;;0.50;;
53654;SDS011;39558;52.028;8.536;2022-07-23T11:59:39;3.33;;;0.80;;
53654;SDS011;39558;52.028;8.536;2022-07-23T12:02:05;2.25;;;0.60;;
53654;SDS011;39558;52.028;8.536;2022-07-23T12:04:38;2.85;;;0.50;;
53654;SDS011;39558;52.028;8.536;2022-07-23T12:07:04;4.20;;;0.80;;
53654;SDS011;39558;52.028;8.536;2022-07-23T12:09:30;2.55;;;0.63;;
53654;SDS011;39558;52.028;8.536;2022-07-23T12:11:57;3.28;;;0.40;;
53654;SDS011;39558;52.028;8.536;2022-07-23T12:14:23;2.47;;;0.68;;
53654;SDS011;39558;52.028;8.536;2022-07-23T12:17:10;2.75;;;0.60;;
53654;SDS011;39558;52.028;8.536;2022-07-23T12:19:36;1.92;;;0.50;;
53654;SDS011;39558;52.028;8.536;2022-07-23T12:22:02;3.40;;;0.50;;
53654;SDS011;39558;52.028;8.536;2022-07-23T12:24:28;3.58;;;0.93;;
53654;SDS011;39558;52.028;8.536;2022-07-23T12:27:13;3.42;;;0.70;;
53654;SDS011;39558;52.028;8.536;2022-07-23T12:29:39;1.02;;;0.45;;
53654;SDS011;39558;52.028;8.536;2022-07-23T12:35:04;2.53;;;0.52;;
53654;SDS011;39558;52.028;8.536;2022-07-23T12:37:35;1.77;;;0.50;;
53654;SDS011;39558;52.028;8.536;2022-07-23T12:40:20;1.38;;;0.60;;
53654;SDS011;39558;52.028;8.536;2022-07-23T12:42:48;3.30;;;0.77;;
53654;SDS011;39558;52.028;8.536;2022-07-23T12:45:14;3.67;;;0.90;;
53654;SDS011;39558;52.028;8.536;2022-07-23T12:47:53;1.35;;;0.47;;
53654;SDS011;39558;52.028;8.536;2022-07-23T12:50:36;1.33;;;0.45;;
53654;SDS011;39558;52.028;8.536;2022-07-23T12:53:03;3.72;;;0.80;;
53654;SDS011;39558;52.028;8.536;2022-07-23T12:55:29;1.77;;;0.82;;
53654;SDS011;39558;52.028;8.536;2022-07-23T13:05:48;0.93;;;0.37;;
53654;SDS011;39558;52.028;8.536;2022-07-23T13:08:14;1.40;;;0.40;;
53654;SDS011;39558;52.028;8.536;2022-07-23T13:10:40;0.65;;;0.40;;
53654;SDS011;39558;52.028;8.536;2022-07-23T13:13:09;1.20;;;0.50;;
53654;SDS011;39558;52.028;8.536;2022-07-23T13:15:36;2.90;;;0.60;;
53654;SDS011;39558;52.028;8.536;2022-07-23T13:18:01;1.55;;;0.68;;
53654;SDS011;39558;52.028;8.536;2022-07-23T13:20:27;1.85;;;0.60;;
53654;SDS011;39558;52.028;8.536;2022-07-23T13:22:53;1.65;;;0.55;;
53654;SDS011;39558;52.028;8.536;2022-07-23T13:25:19;1.75;;;0.82;;
53654;SDS011;39558;52.028;8.536;2022-07-23T13:27:45;1.23;;;0.50;;
53654;SDS011;39558;52.028;8.536;2022-07-23T13:30:11;1.42;;;0.70;;
53654;SDS011;39558;52.028;8.536;2022-07-23T13:32:37;1.92;;;0.52;;
53654;SDS011;39558;52.028;8.536;2022-07-23T13:35:03;1.42;;;0.40;;
53654;SDS011;39558;52.028;8.536;2022-07-23T13:37:29;0.80;;;0.45;;
53654;SDS011;39558;52.028;8.536;2022-07-23T13:39:55;1.48;;;0.40;;
53654;SDS011;39558;52.028;8.536;2022-07-23T13:42:21;2.63;;;0.73;;
53654;SDS011;39558;52.028;8.536;2022-07-23T13:44:47;1.70;;;0.57;;
53654;SDS011;39558;52.028;8.536;2022-07-23T13:47:12;1.90;;;0.35;;
53654;SDS011;39558;52.028;8.536;2022-07-23T13:49:38;2.40;;;0.50;;
53654;SDS011;39558;52.028;8.536;2022-07-23T13:52:04;1.15;;;0.45;;
53654;SDS011;39558;52.028;8.536;2022-07-23T13:54:31;2.17;;;0.60;;
53654;SDS011;39558;52.028;8.536;2022-07-23T13:56:57;1.48;;;0.55;;
53654;SDS011;39558;52.028;8.536;2022-07-23T13:59:23;1.35;;;0.40;;
53654;SDS011;39558;52.028;8.536;2022-07-23T14:01:49;2.47;;;0.50;;
53654;SDS011;39558;52.028;8.536;2022-07-23T14:04:15;3.40;;;0.60;;
53654;SDS011;39558;52.028;8.536;2022-07-23T14:06:41;1.38;;;0.50;;
53654;SDS011;39558;52.028;8.536;2022-07-23T14:09:07;1.02;;;0.40;;
53654;SDS011;39558;52.028;8.536;2022-07-23T14:11:33;2.67;;;0.50;;
53654;SDS011;39558;52.028;8.536;2022-07-23T14:13:59;3.35;;;0.65;;
53654;SDS011;39558;52.028;8.536;2022-07-23T14:16:25;2.13;;;0.57;;
53654;SDS011;39558;52.028;8.536;2022-07-23T14:18:51;1.83;;;0.60;;
53654;SDS011;39558;52.028;8.536;2022-07-23T14:21:17;0.98;;;0.40;;
53654;SDS011;39558;52.028;8.536;2022-07-23T14:23:43;1.60;;;0.70;;
53654;SDS011;39558;52.028;8.536;2022-07-23T14:26:09;0.82;;;0.32;;
53654;SDS011;39558;52.028;8.536;2022-07-23T14:28:35;1.10;;;0.32;;
53654;SDS011;39558;52.028;8.536;2022-07-23T14:31:01;1.45;;;0.80;;
53654;SDS011;39558;52.028;8.536;2022-07-23T14:33:27;0.68;;;0.32;;
53654;SDS011;39558;52.028;8.536;2022-07-23T14:35:53;0.90;;;0.40;;
53654;SDS011;39558;52.028;8.536;2022-07-23T14:38:19;1.80;;;0.60;;
53654;SDS011;39558;52.028;8.536;2022-07-23T14:40:45;1.23;;;0.43;;
53654;SDS011;39558;52.028;8.536;2022-07-23T14:43:11;1.15;;;0.45;;
53654;SDS011;39558;52.028;8.536;2022-07-23T14:45:36;0.50;;;0.28;;
53654;SDS011;39558;52.028;8.536;2022-07-23T14:48:02;0.77;;;0.52;;
53654;SDS011;39558;52.028;8.536;2022-07-23T14:50:28;1.20;;;0.50;;
53654;SDS011;39558;52.028;8.536;2022-07-23T14:52:54;0.90;;;0.32;;
53654;SDS011;39558;52.028;8.536;2022-07-23T14:55:20;0.60;;;0.32;;
53654;SDS011;39558;52.028;8.536;2022-07-23T14:57:46;1.08;;;0.45;;
53654;SDS011;39558;52.028;8.536;2022-07-23T15:00:12;0.82;;;0.50;;
53654;SDS011;39558;52.028;8.536;2022-07-23T15:02:39;1.10;;;0.55;;
53654;SDS011;39558;52.028;8.536;2022-07-23T15:05:05;1.90;;;0.63;;
53654;SDS011;39558;52.028;8.536;2022-07-23T15:07:31;2.55;;;0.43;;
53654;SDS011;39558;52.028;8.536;2022-07-23T15:09:57;2.00;;;0.40;;
53654;SDS011;39558;52.028;8.536;2022-07-23T15:12:23;1.63;;;0.60;;
53654;SDS011;39558;52.028;8.536;2022-07-23T15:14:49;2.05;;;0.43;;
53654;SDS011;39558;52.028;8.536;2022-07-23T15:17:15;1.15;;;0.40;;
53654;SDS011;39558;52.028;8.536;2022-07-23T15:19:41;2.38;;;0.35;;
53654;SDS011;39558;52.028;8.536;2022-07-23T15:22:07;1.50;;;0.60;;
53654;SDS011;39558;52.028;8.536;2022-07-23T15:24:33;0.88;;;0.35;;
53654;SDS011;39558;52.028;8.536;2022-07-23T15:26:59;1.00;;;0.50;;
53654;SDS011;39558;52.028;8.536;2022-07-23T15:29:25;0.98;;;0.40;;